createdAt,value
2022-10-15T00:02:00.810Z,30.27
2022-10-15T00:04:28.593Z,29.08
2022-10-15T00:06:57.930Z,30.52
2022-10-15T00:09:25.968Z,30.52
2022-10-15T00:11:53.804Z,30.02
2022-10-15T00:14:21.529Z,33.60
2022-10-15T00:19:18.387Z,30.30
2022-10-15T00:21:46.608Z,30.10
2022-10-15T00:24:15.880Z,31.55
2022-10-15T00:26:43.771Z,30.25
2022-10-15T00:29:14.843Z,31.50
2022-10-15T00:31:42.762Z,32.75
2022-10-15T00:34:10.550Z,31.67
2022-10-15T00:36:38.795Z,29.65
2022-10-15T00:39:07.080Z,30.48
2022-10-15T00:41:37.128Z,31.77
2022-10-15T00:44:24.934Z,30.70
2022-10-15T00:46:53.663Z,29.15
2022-10-15T00:49:23.162Z,29.65
2022-10-15T00:51:54.017Z,31.48
2022-10-15T00:54:22.703Z,30.77
2022-10-15T00:56:54.276Z,29.98
2022-10-15T00:59:23.979Z,30.40
2022-10-15T01:01:51.875Z,31.45
2022-10-15T01:04:19.947Z,30.48
2022-10-15T01:06:48.148Z,30.13
2022-10-15T01:09:15.931Z,29.70
2022-10-15T01:11:45.343Z,30.98
2022-10-15T01:14:24.139Z,31.70
2022-10-15T01:16:55.630Z,33.33
2022-10-15T01:19:42.790Z,32.65
2022-10-15T01:22:13.061Z,30.85
2022-10-15T01:24:45.692Z,33.30
2022-10-15T01:27:18.773Z,32.53
2022-10-15T01:30:04.758Z,31.35
2022-10-15T01:32:36.793Z,34.33
2022-10-15T01:35:08.051Z,30.42
2022-10-15T01:37:38.431Z,32.25
2022-10-15T01:40:08.563Z,30.85
2022-10-15T01:42:47.363Z,33.25
2022-10-15T01:45:19.062Z,29.55
2022-10-15T01:48:08.335Z,31.23
2022-10-15T01:50:37.361Z,28.08
2022-10-15T01:53:06.854Z,33.30
2022-10-15T01:55:35.678Z,29.05
2022-10-15T01:58:06.204Z,30.25
2022-10-15T02:00:34.405Z,29.40
2022-10-15T02:03:05.475Z,28.55
2022-10-15T02:05:36.579Z,28.52
2022-10-15T02:08:08.217Z,28.75
2022-10-15T02:10:42.255Z,28.95
2022-10-15T02:13:13.091Z,28.42
2022-10-15T02:15:45.459Z,28.55
2022-10-15T02:18:17.593Z,27.65
2022-10-15T02:20:51.094Z,28.27
2022-10-15T02:23:20.414Z,30.50
2022-10-15T02:25:49.971Z,28.42
2022-10-15T02:28:19.217Z,31.65
2022-10-15T02:30:49.658Z,28.35
2022-10-15T02:33:19.212Z,28.38
2022-10-15T02:35:51.534Z,31.65
2022-10-15T02:38:21.082Z,31.33
2022-10-15T02:40:49.608Z,30.85
2022-10-15T02:43:20.138Z,29.83
2022-10-15T02:45:48.794Z,28.20
2022-10-15T02:48:18.306Z,28.92
2022-10-15T02:50:48.362Z,27.98
2022-10-15T02:53:17.506Z,28.33
2022-10-15T02:55:46.067Z,28.20
2022-10-15T02:58:14.465Z,28.20
2022-10-15T03:00:44.648Z,28.95
2022-10-15T03:03:13.756Z,28.65
2022-10-15T03:05:43.181Z,29.65
2022-10-15T03:08:11.351Z,31.30
2022-10-15T03:10:40.586Z,29.58
2022-10-15T03:13:09.218Z,28.33
2022-10-15T03:15:45.382Z,29.42
2022-10-15T03:18:15.406Z,29.02
2022-10-15T03:20:44.112Z,31.05
2022-10-15T03:23:11.857Z,26.35
2022-10-15T03:25:41.207Z,29.63
2022-10-15T03:28:11.941Z,29.27
2022-10-15T03:30:43.257Z,28.02
2022-10-15T03:33:11.430Z,27.80
2022-10-15T03:35:39.880Z,28.67
2022-10-15T03:38:08.542Z,29.10
2022-10-15T03:40:36.788Z,28.73
2022-10-15T03:43:24.288Z,28.35
2022-10-15T03:45:52.809Z,28.52
2022-10-15T03:48:24.537Z,29.33
2022-10-15T03:50:52.755Z,26.92
2022-10-15T03:53:21.128Z,29.17
2022-10-15T03:55:48.936Z,28.90
2022-10-15T03:58:16.827Z,29.52
2022-10-15T04:00:52.819Z,29.73
2022-10-15T04:03:20.988Z,28.90
2022-10-15T04:05:53.860Z,28.25
2022-10-15T04:08:24.913Z,28.33
2022-10-15T04:10:53.498Z,29.60
2022-10-15T04:13:21.533Z,28.58
2022-10-15T04:15:49.480Z,27.23
2022-10-15T04:18:20.683Z,28.77
2022-10-15T04:20:52.813Z,29.58
2022-10-15T04:23:23.938Z,26.92
2022-10-15T04:26:17.233Z,28.42
2022-10-15T04:28:45.268Z,39.03
2022-10-15T04:31:13.289Z,32.10
2022-10-15T04:33:42.777Z,33.50
2022-10-15T04:36:13.752Z,34.30
2022-10-15T04:38:59.330Z,28.25
2022-10-15T04:41:36.141Z,29.08
2022-10-15T04:44:18.766Z,28.45
2022-10-15T04:46:53.141Z,27.52
2022-10-15T04:49:45.782Z,27.77
2022-10-15T04:52:32.239Z,29.77
2022-10-15T04:55:14.171Z,29.65
2022-10-15T04:57:41.910Z,29.38
2022-10-15T05:00:10.862Z,27.50
2022-10-15T05:02:57.632Z,29.27
2022-10-15T05:06:00.543Z,30.05
2022-10-15T05:08:28.611Z,28.05
2022-10-15T05:11:09.877Z,29.30
2022-10-15T05:13:37.784Z,27.90
2022-10-15T05:16:13.099Z,29.58
2022-10-15T05:18:40.967Z,28.55
2022-10-15T05:21:11.126Z,28.25
2022-10-15T05:23:40.112Z,28.30
2022-10-15T05:26:23.261Z,28.48
2022-10-15T05:28:51.682Z,30.95
2022-10-15T05:31:27.519Z,30.02
2022-10-15T05:34:07.699Z,26.17
2022-10-15T05:36:48.248Z,27.17
2022-10-15T05:39:16.993Z,27.20
2022-10-15T05:41:46.591Z,27.00
2022-10-15T05:44:15.183Z,28.27
2022-10-15T05:46:43.090Z,27.98
2022-10-15T05:49:15.292Z,28.00
2022-10-15T05:51:51.968Z,25.95
2022-10-15T05:54:34.657Z,26.48
2022-10-15T05:57:02.438Z,26.05
2022-10-15T05:59:30.693Z,27.27
2022-10-15T06:01:59.007Z,26.52
2022-10-15T06:04:27.923Z,27.30
2022-10-15T06:06:59.635Z,26.20
2022-10-15T06:09:28.924Z,26.55
2022-10-15T06:11:56.739Z,25.65
2022-10-15T06:14:26.960Z,25.75
2022-10-15T06:16:55.115Z,27.13
2022-10-15T06:19:22.943Z,26.27
2022-10-15T06:21:50.817Z,25.50
2022-10-15T06:24:20.241Z,25.02
2022-10-15T06:26:48.147Z,26.77
2022-10-15T06:29:15.915Z,25.70
2022-10-15T06:31:43.818Z,28.02
2022-10-15T06:34:11.682Z,29.80
2022-10-15T06:36:40.448Z,24.90
2022-10-15T06:39:08.834Z,23.90
2022-10-15T06:41:37.911Z,24.63
2022-10-15T06:44:06.120Z,30.10
2022-10-15T06:46:34.183Z,25.80
2022-10-15T06:49:02.166Z,23.10
2022-10-15T06:51:29.989Z,27.02
2022-10-15T06:53:57.797Z,23.33
2022-10-15T06:56:25.718Z,22.80
2022-10-15T06:58:55.018Z,23.90
2022-10-15T07:01:22.908Z,23.83
2022-10-15T07:03:51.001Z,23.42
2022-10-15T07:06:19.049Z,24.10
2022-10-15T07:08:46.933Z,25.23
2022-10-15T07:11:14.774Z,24.95
2022-10-15T07:13:43.655Z,24.38
2022-10-15T07:16:13.918Z,25.35
2022-10-15T07:18:41.736Z,25.90
2022-10-15T07:23:38.923Z,24.40
2022-10-15T07:26:07.278Z,23.77
2022-10-15T07:28:37.707Z,24.23
2022-10-15T07:31:07.463Z,23.20
2022-10-15T07:33:36.733Z,22.83
2022-10-15T07:36:06.626Z,22.20
2022-10-15T07:38:34.592Z,23.27
2022-10-15T07:41:02.950Z,23.90
2022-10-15T07:43:33.003Z,23.23
2022-10-15T07:48:28.382Z,24.15
2022-10-15T07:53:27.998Z,25.13
2022-10-15T07:55:59.299Z,22.92
2022-10-15T07:58:31.275Z,22.77
2022-10-15T08:01:01.325Z,22.52
2022-10-15T08:03:29.370Z,23.17
2022-10-15T08:05:57.223Z,25.60
2022-10-15T08:08:25.110Z,22.52
2022-10-15T08:13:21.926Z,22.50
2022-10-15T08:15:53.107Z,22.00
2022-10-15T08:18:23.733Z,21.00
2022-10-15T08:20:51.534Z,21.30
2022-10-15T08:23:19.470Z,21.20
2022-10-15T08:25:47.300Z,19.75
2022-10-15T08:28:15.472Z,20.00
2022-10-15T08:30:44.859Z,19.20
2022-10-15T08:33:13.284Z,18.42
2022-10-15T08:35:43.493Z,17.00
2022-10-15T08:38:14.767Z,17.20
2022-10-15T08:40:48.124Z,16.58
2022-10-15T08:43:19.899Z,15.23
2022-10-15T08:45:50.349Z,15.65
2022-10-15T08:48:21.839Z,17.17
2022-10-15T08:50:54.117Z,15.55
2022-10-15T08:53:23.566Z,16.25
2022-10-15T08:55:56.688Z,14.93
2022-10-15T08:58:27.502Z,17.15
2022-10-15T09:00:59.070Z,13.68
2022-10-15T09:03:33.120Z,14.75
2022-10-15T09:06:04.522Z,14.93
2022-10-15T09:08:36.676Z,13.57
2022-10-15T09:11:07.172Z,15.45
2022-10-15T09:16:11.860Z,14.73
2022-10-15T09:18:42.921Z,14.98
2022-10-15T09:21:11.545Z,14.38
2022-10-15T09:23:41.362Z,13.32
2022-10-15T09:26:17.522Z,13.10
2022-10-15T09:28:47.563Z,12.75
2022-10-15T09:31:21.651Z,12.05
2022-10-15T09:33:51.904Z,11.27
2022-10-15T09:36:33.150Z,10.93
2022-10-15T09:39:04.568Z,10.90
2022-10-15T09:41:39.584Z,11.45
2022-10-15T09:44:13.726Z,11.82
2022-10-15T09:46:50.601Z,11.43
2022-10-15T09:49:21.196Z,11.10
2022-10-15T09:51:58.936Z,11.50
2022-10-15T09:54:31.417Z,11.02
2022-10-15T09:56:59.237Z,10.98
2022-10-15T09:59:28.215Z,11.30
2022-10-15T10:02:01.823Z,10.57
2022-10-15T10:04:30.783Z,10.73
2022-10-15T10:07:00.176Z,11.82
2022-10-15T10:09:31.803Z,10.40
2022-10-15T10:12:01.338Z,11.90
2022-10-15T10:14:30.742Z,10.98
2022-10-15T10:17:07.467Z,10.15
2022-10-15T10:19:35.309Z,11.23
2022-10-15T10:22:14.536Z,10.38
2022-10-15T10:24:43.516Z,9.60
2022-10-15T10:27:30.249Z,9.00
2022-10-15T10:29:59.158Z,8.65
2022-10-15T10:32:31.199Z,8.20
2022-10-15T10:35:00.077Z,8.23
2022-10-15T10:37:28.171Z,7.22
2022-10-15T10:39:56.927Z,7.72
2022-10-15T10:42:25.957Z,7.47
2022-10-15T10:44:54.312Z,8.38
2022-10-15T10:47:23.446Z,8.07
2022-10-15T10:49:57.437Z,7.88
2022-10-15T10:52:27.236Z,7.03
2022-10-15T10:55:00.203Z,6.72
2022-10-15T10:57:31.774Z,6.72
2022-10-15T10:59:59.628Z,7.20
2022-10-15T11:02:27.376Z,7.32
2022-10-15T11:04:56.637Z,6.75
2022-10-15T11:07:28.027Z,6.18
2022-10-15T11:10:00.494Z,6.63
2022-10-15T11:12:46.342Z,6.35
2022-10-15T11:15:29.001Z,6.35
2022-10-15T11:18:06.645Z,6.60
2022-10-15T11:20:56.425Z,5.25
2022-10-15T11:23:34.099Z,6.32
2022-10-15T11:26:08.649Z,6.80
2022-10-15T11:28:45.506Z,6.97
2022-10-15T11:31:17.854Z,5.38
2022-10-15T11:33:50.501Z,6.60
2022-10-15T11:36:25.228Z,6.57
2022-10-15T11:38:56.224Z,5.97
2022-10-15T11:41:29.528Z,5.97
2022-10-15T11:44:08.694Z,6.68
2022-10-15T11:46:46.509Z,6.43
2022-10-15T11:49:25.763Z,6.53
2022-10-15T11:52:07.213Z,6.45
2022-10-15T11:54:38.155Z,6.53
2022-10-15T11:57:09.835Z,6.88
2022-10-15T11:59:40.103Z,6.65
2022-10-15T12:02:14.011Z,6.20
2022-10-15T12:04:44.859Z,6.43
2022-10-15T12:07:17.178Z,6.43
2022-10-15T12:09:48.157Z,6.00
2022-10-15T12:12:20.864Z,5.82
2022-10-15T12:14:51.250Z,6.15
2022-10-15T12:17:23.170Z,6.43
2022-10-15T12:19:54.442Z,6.25
2022-10-15T12:22:37.856Z,5.82
2022-10-15T12:25:06.718Z,5.97
2022-10-15T12:27:37.924Z,5.57
2022-10-15T12:30:29.884Z,6.88
2022-10-15T12:32:57.790Z,6.13
2022-10-15T12:35:32.097Z,6.07
2022-10-15T12:38:10.918Z,6.63
2022-10-15T12:40:40.491Z,5.95
2022-10-15T12:43:14.767Z,5.90
2022-10-15T12:45:52.242Z,5.88
2022-10-15T12:48:22.617Z,6.65
2022-10-15T12:50:50.591Z,6.07
2022-10-15T12:53:34.443Z,6.90
2022-10-15T12:56:14.982Z,5.97
2022-10-15T12:58:43.458Z,6.60
2022-10-15T13:01:26.702Z,6.32
2022-10-15T13:04:00.147Z,6.22
2022-10-15T13:06:40.288Z,6.05
2022-10-15T13:09:21.553Z,6.00
2022-10-15T13:14:26.032Z,5.72
2022-10-15T13:16:56.728Z,5.68
2022-10-15T13:19:26.838Z,6.38
2022-10-15T13:21:59.273Z,6.13
2022-10-15T13:24:32.253Z,6.53
2022-10-15T13:27:01.864Z,5.70
2022-10-15T13:29:30.421Z,9.35
2022-10-15T13:31:58.773Z,7.45
2022-10-15T13:34:28.109Z,6.03
2022-10-15T13:36:58.007Z,6.78
2022-10-15T13:39:29.862Z,5.55
2022-10-15T13:42:08.001Z,5.63
2022-10-15T13:44:36.175Z,6.20
2022-10-15T13:47:04.224Z,6.53
2022-10-15T13:49:32.891Z,4.68
2022-10-15T13:52:00.750Z,5.50
2022-10-15T13:54:31.982Z,6.90
2022-10-15T13:57:01.856Z,6.93
2022-10-15T13:59:32.243Z,5.90
2022-10-15T14:02:01.315Z,5.75
2022-10-15T14:04:31.179Z,6.25
2022-10-15T14:07:02.887Z,8.60
2022-10-15T14:09:33.964Z,8.30
2022-10-15T14:12:03.078Z,6.88
2022-10-15T14:14:35.238Z,6.22
2022-10-15T14:17:04.842Z,6.03
2022-10-15T14:19:34.038Z,5.32
2022-10-15T14:22:02.135Z,5.32
2022-10-15T14:24:34.191Z,5.88
2022-10-15T14:27:03.398Z,5.65
2022-10-15T14:29:38.420Z,5.47
2022-10-15T14:32:19.966Z,5.07
2022-10-15T14:34:48.174Z,5.32
2022-10-15T14:37:29.648Z,5.50
2022-10-15T14:40:04.043Z,6.28
2022-10-15T14:42:33.607Z,6.93
2022-10-15T14:45:13.126Z,6.20
2022-10-15T14:47:45.295Z,5.47
2022-10-15T14:50:14.697Z,6.43
2022-10-15T14:52:45.438Z,6.88
2022-10-15T14:55:17.050Z,7.65
2022-10-15T14:57:48.260Z,7.47
2022-10-15T15:00:21.997Z,7.55
2022-10-15T15:02:50.102Z,6.97
2022-10-15T15:05:20.659Z,5.97
2022-10-15T15:07:49.152Z,6.30
2022-10-15T15:10:17.198Z,5.78
2022-10-15T15:12:47.218Z,6.30
2022-10-15T15:15:16.126Z,7.03
2022-10-15T15:17:45.528Z,6.28
2022-10-15T15:20:13.736Z,6.20
2022-10-15T15:22:42.139Z,6.40
2022-10-15T15:25:15.225Z,5.72
2022-10-15T15:27:43.006Z,8.55
2022-10-15T15:30:15.497Z,8.73
2022-10-15T15:32:43.317Z,6.97
2022-10-15T15:35:17.542Z,6.13
2022-10-15T15:37:48.243Z,6.53
2022-10-15T15:40:16.135Z,5.35
2022-10-15T15:42:44.199Z,5.82
2022-10-15T15:45:17.995Z,5.95
2022-10-15T15:47:45.837Z,6.07
2022-10-15T15:50:15.073Z,6.20
2022-10-15T15:52:43.649Z,6.18
2022-10-15T15:55:11.579Z,5.90
2022-10-15T15:57:39.708Z,8.07
2022-10-15T16:00:09.229Z,6.50
2022-10-15T16:02:38.094Z,6.32
2022-10-15T16:05:06.374Z,5.65
2022-10-15T16:07:35.883Z,5.50
2022-10-15T16:10:06.360Z,6.70
2022-10-15T16:12:34.719Z,6.03
2022-10-15T16:15:02.640Z,6.45
2022-10-15T16:17:30.383Z,6.57
2022-10-15T16:19:58.154Z,5.78
2022-10-15T16:22:26.068Z,7.97
2022-10-15T16:24:55.467Z,7.97
2022-10-15T16:27:24.110Z,7.43
2022-10-15T16:29:53.088Z,9.40
2022-10-15T16:32:20.929Z,7.32
2022-10-15T16:34:48.762Z,7.47
2022-10-15T16:37:16.612Z,8.00
2022-10-15T16:39:45.256Z,7.40
2022-10-15T16:42:14.696Z,7.72
2022-10-15T16:44:42.840Z,7.82
2022-10-15T16:47:12.333Z,6.93
2022-10-15T16:49:42.285Z,7.50
2022-10-15T16:52:10.501Z,7.93
2022-10-15T16:54:38.298Z,8.23
2022-10-15T16:57:06.416Z,9.35
2022-10-15T16:59:35.695Z,8.27
2022-10-15T17:02:03.643Z,8.63
2022-10-15T17:04:31.700Z,8.48
2022-10-15T17:06:59.515Z,8.38
2022-10-15T17:09:27.322Z,8.25
2022-10-15T17:11:55.180Z,9.15
2022-10-15T17:14:25.621Z,11.07
2022-10-15T17:16:55.095Z,20.13
2022-10-15T17:19:27.849Z,14.45
2022-10-15T17:21:58.386Z,18.90
2022-10-15T17:24:26.266Z,25.33
2022-10-15T17:26:55.669Z,21.83
2022-10-15T17:29:27.801Z,22.48
2022-10-15T17:32:00.358Z,20.23
2022-10-15T17:34:29.112Z,21.25
2022-10-15T17:36:57.114Z,19.38
2022-10-15T17:39:24.942Z,19.70
2022-10-15T17:41:52.926Z,16.58
2022-10-15T17:44:21.450Z,15.00
2022-10-15T17:49:18.927Z,25.65
2022-10-15T17:51:47.095Z,19.73
2022-10-15T17:54:15.739Z,12.85
2022-10-15T17:56:44.571Z,11.02
2022-10-15T17:59:12.930Z,11.05
2022-10-15T18:04:32.658Z,10.10
2022-10-15T18:07:00.472Z,9.32
2022-10-15T18:09:28.756Z,9.88
2022-10-15T18:11:59.014Z,8.77
2022-10-15T18:14:31.963Z,8.90
2022-10-15T18:16:59.903Z,8.73
2022-10-15T18:19:28.352Z,8.88
2022-10-15T18:21:58.527Z,9.88
2022-10-15T18:24:26.449Z,10.23
2022-10-15T18:26:54.755Z,8.68
2022-10-15T18:29:25.309Z,9.13
2022-10-15T18:31:57.467Z,8.88
2022-10-15T18:34:28.001Z,9.52
2022-10-15T18:36:57.486Z,9.50
2022-10-15T18:39:26.511Z,14.02
2022-10-15T18:41:54.442Z,10.45
2022-10-15T18:44:23.511Z,11.85
2022-10-15T18:46:51.764Z,11.05
2022-10-15T18:49:20.160Z,10.80
2022-10-15T18:51:51.610Z,13.52
2022-10-15T18:54:21.027Z,23.20
2022-10-15T18:56:49.523Z,14.02
2022-10-15T18:59:19.955Z,12.48
2022-10-15T19:01:49.790Z,13.00
2022-10-15T19:04:18.320Z,12.13
2022-10-15T19:06:47.432Z,13.30
2022-10-15T19:09:16.022Z,11.63
2022-10-15T19:11:46.829Z,11.90
2022-10-15T19:14:16.669Z,11.23
2022-10-15T19:16:45.003Z,11.25
2022-10-15T19:19:16.258Z,10.88
2022-10-15T19:21:44.578Z,10.32
2022-10-15T19:24:13.170Z,11.98
2022-10-15T19:26:41.757Z,11.13
2022-10-15T19:29:12.510Z,11.43
2022-10-15T19:31:41.580Z,10.52
2022-10-15T19:34:09.628Z,12.30
2022-10-15T19:36:39.129Z,12.35
2022-10-15T19:39:08.021Z,12.57
2022-10-15T19:41:42.854Z,12.95
2022-10-15T19:44:19.791Z,13.02
2022-10-15T19:46:47.798Z,12.98
2022-10-15T19:49:16.079Z,12.45
2022-10-15T19:51:44.190Z,13.30
2022-10-15T19:54:12.035Z,13.80
2022-10-15T19:56:39.849Z,12.93
2022-10-15T19:59:07.980Z,13.13
2022-10-15T20:01:37.291Z,12.88
2022-10-15T20:04:07.172Z,13.18
2022-10-15T20:06:35.664Z,11.68
2022-10-15T20:09:03.586Z,11.52
2022-10-15T20:11:31.595Z,11.65
2022-10-15T20:13:59.700Z,11.55
2022-10-15T20:16:32.379Z,12.07
2022-10-15T20:19:03.475Z,11.68
2022-10-15T20:21:31.581Z,10.98
2022-10-15T20:23:59.377Z,13.13
2022-10-15T20:26:27.130Z,12.77
2022-10-15T20:28:55.250Z,12.88
2022-10-15T20:31:28.522Z,13.30
2022-10-15T20:33:56.671Z,12.60
2022-10-15T20:36:27.412Z,12.60
2022-10-15T20:38:57.442Z,11.68
2022-10-15T20:41:25.429Z,12.98
2022-10-15T20:43:54.373Z,12.35
2022-10-15T20:46:25.123Z,13.10
2022-10-15T20:48:53.215Z,12.05
2022-10-15T20:51:23.403Z,13.85
2022-10-15T20:53:55.476Z,12.40
2022-10-15T20:56:24.492Z,10.88
2022-10-15T20:58:52.358Z,10.95
2022-10-15T21:01:20.470Z,12.80
2022-10-15T21:03:49.024Z,22.58
2022-10-15T21:06:17.063Z,10.73
2022-10-15T21:08:45.005Z,11.00
2022-10-15T21:11:14.199Z,11.35
2022-10-15T21:13:42.325Z,11.00
2022-10-15T21:16:10.571Z,10.75
2022-10-15T21:18:38.786Z,10.30
2022-10-15T21:21:07.504Z,11.15
2022-10-15T21:23:35.387Z,10.23
2022-10-15T21:26:06.187Z,10.15
2022-10-15T21:28:35.714Z,9.38
2022-10-15T21:31:05.357Z,10.35
2022-10-15T21:33:33.576Z,10.32
2022-10-15T21:36:09.973Z,9.93
2022-10-15T21:38:37.773Z,10.32
2022-10-15T21:41:05.699Z,10.48
2022-10-15T21:43:34.482Z,9.55
2022-10-15T21:46:08.349Z,9.70
2022-10-15T21:48:37.693Z,9.70
2022-10-15T21:51:05.675Z,9.27
2022-10-15T21:53:34.857Z,9.63
2022-10-15T21:56:05.721Z,10.05
2022-10-15T21:58:33.535Z,8.52
2022-10-15T22:01:10.120Z,8.85
2022-10-15T22:03:40.566Z,9.73
2022-10-15T22:06:10.273Z,9.75
2022-10-15T22:08:38.515Z,9.23
2022-10-15T22:11:10.535Z,9.10
2022-10-15T22:13:39.467Z,8.63
2022-10-15T22:16:07.784Z,8.40
2022-10-15T22:18:37.154Z,9.50
2022-10-15T22:21:16.036Z,9.10
2022-10-15T22:23:44.902Z,8.95
2022-10-15T22:26:13.266Z,9.40
2022-10-15T22:28:41.243Z,8.63
2022-10-15T22:31:10.260Z,8.38
2022-10-15T22:33:42.056Z,9.40
2022-10-15T22:36:14.460Z,8.80
2022-10-15T22:38:43.684Z,9.05
2022-10-15T22:41:11.737Z,8.70
2022-10-15T22:43:39.540Z,7.95
2022-10-15T22:46:07.786Z,8.98
2022-10-15T22:48:36.344Z,8.48
2022-10-15T22:51:07.214Z,8.30
2022-10-15T22:53:35.323Z,8.13
2022-10-15T22:56:04.109Z,8.48
2022-10-15T22:58:32.635Z,8.52
2022-10-15T23:01:07.521Z,8.57
2022-10-15T23:03:35.646Z,9.32
2022-10-15T23:06:03.485Z,8.23
2022-10-15T23:08:33.117Z,7.85
2022-10-15T23:11:09.218Z,9.32
2022-10-15T23:13:38.024Z,8.13
2022-10-15T23:16:06.481Z,8.15
2022-10-15T23:18:34.382Z,7.68
2022-10-15T23:21:06.627Z,7.28
2022-10-15T23:23:35.855Z,8.05
2022-10-15T23:26:03.824Z,8.90
2022-10-15T23:28:32.243Z,7.95
2022-10-15T23:31:00.182Z,7.50
2022-10-15T23:33:28.057Z,7.53
2022-10-15T23:36:00.171Z,7.72
2022-10-15T23:38:28.371Z,8.50
2022-10-15T23:41:04.285Z,7.82
2022-10-15T23:43:32.602Z,7.90
2022-10-15T23:46:00.772Z,7.78
2022-10-15T23:48:29.162Z,9.18
2022-10-15T23:51:00.903Z,8.73
2022-10-15T23:53:32.952Z,9.02
2022-10-15T23:56:03.871Z,8.25
2022-10-15T23:58:32.259Z,8.48
